Time;durP1;ratioP1;P1;durP2;ratioP2;P2;SDS_P1;SDS_P2;PMS_P1;PMS_P2;Temp;Humidity;BMP_temperature;BMP_pressure;BME280_temperature;BME280_humidity;BME280_pressure;Samples;Min_cycle;Max_cycle;Signal;HPM_P1;HPM_P2
2023/03/04 00:00:45;;;;;;;22.58;13.13;;;;;;;7.72;90.02;101063.31;4937088;28;20055;-67
2023/03/04 00:03:16;;;;;;;24.83;13.68;;;;;;;7.68;90.40;101062.16;4954831;29;20055;-67
2023/03/04 00:05:44;;;;;;;27.98;14.02;;;;;;;7.56;90.66;101058.69;4940495;29;20051;-67
2023/03/04 00:08:12;;;;;;;23.30;14.02;;;;;;;7.47;90.56;101061.81;4936443;29;20047;-67
2023/03/04 00:10:40;;;;;;;24.83;14.60;;;;;;;7.45;90.69;101063.16;4935737;29;20055;-67
2023/03/04 00:13:08;;;;;;;27.83;14.32;;;;;;;7.39;90.95;101059.53;4935415;29;20059;-67
2023/03/04 00:15:35;;;;;;;25.63;13.65;;;;;;;7.39;91.03;101060.34;4935824;29;20048;-67
2023/03/04 00:18:03;;;;;;;29.00;14.43;;;;;;;7.47;91.28;101056.38;4934863;29;20059;-67
2023/03/04 00:20:32;;;;;;;27.08;13.93;;;;;;;7.56;90.36;101059.53;4938461;29;20062;-67
2023/03/04 00:22:59;;;;;;;26.77;15.50;;;;;;;7.59;90.57;101060.94;4935132;29;20060;-67
2023/03/04 00:25:27;;;;;;;31.98;15.70;;;;;;;7.65;90.34;101051.75;4927679;29;20048;-67
2023/03/04 00:27:57;;;;;;;26.80;15.00;;;;;;;7.66;89.76;101056.97;4935146;29;20040;-67
2023/03/04 00:30:25;;;;;;;29.60;16.45;;;;;;;7.62;89.89;101057.72;4935921;29;20517;-67
2023/03/04 00:32:53;;;;;;;28.08;16.33;;;;;;;7.57;89.86;101050.28;4954724;29;20054;-66
2023/03/04 00:35:23;;;;;;;27.85;15.95;;;;;;;7.40;90.65;101051.09;4936800;29;20063;-67
2023/03/04 00:37:53;;;;;;;29.92;16.55;;;;;;;7.37;90.93;101057.03;4935926;29;20051;-67
2023/03/04 00:40:20;;;;;;;30.73;16.60;;;;;;;7.40;90.76;101056.53;4936961;29;20411;-67
2023/03/04 00:42:48;;;;;;;29.42;16.50;;;;;;;7.43;91.93;101065.31;4954737;29;20054;-67
2023/03/04 00:45:16;;;;;;;27.73;15.57;;;;;;;7.35;91.31;101058.34;4935624;29;20063;-67
2023/03/04 00:47:44;;;;;;;32.25;16.23;;;;;;;7.28;91.30;101061.22;4953476;29;20058;-66
2023/03/04 00:50:12;;;;;;;29.23;16.30;;;;;;;7.27;92.04;101056.84;4936775;29;20048;-67
2023/03/04 00:52:40;;;;;;;37.33;16.90;;;;;;;7.26;92.22;101047.03;4937033;29;20055;-67
2023/03/04 00:55:09;;;;;;;30.85;15.82;;;;;;;7.09;92.71;101052.47;4936689;29;20046;-67
2023/03/04 00:57:37;;;;;;;30.48;15.20;;;;;;;7.16;92.81;101053.16;4953874;29;20059;-67
2023/03/04 01:00:07;;;;;;;27.15;15.55;;;;;;;7.20;92.84;101051.59;4937647;29;20499;-67
2023/03/04 01:02:35;;;;;;;28.85;14.73;;;;;;;7.17;91.95;101056.66;4919204;29;20063;-67
2023/03/04 01:05:03;;;;;;;26.98;13.77;;;;;;;7.08;92.73;101045.34;4935033;29;20047;-67
2023/03/04 01:07:31;;;;;;;30.67;15.73;;;;;;;7.03;92.70;101050.72;4934667;29;20059;-67
2023/03/04 01:10:00;;;;;;;29.10;14.85;;;;;;;7.02;93.19;101047.19;4936422;29;20039;-67
2023/03/04 01:12:28;;;;;;;28.05;15.43;;;;;;;7.01;93.05;101047.41;4940244;29;20082;-67
2023/03/04 01:14:59;;;;;;;32.58;15.98;;;;;;;6.96;93.40;101035.38;4953875;29;20074;-67
2023/03/04 01:17:27;;;;;;;29.77;15.35;;;;;;;6.84;93.18;101032.72;4953659;29;20510;-67
2023/03/04 01:19:55;;;;;;;23.80;14.88;;;;;;;6.85;93.12;101037.06;4933950;29;20051;-67
2023/03/04 01:22:23;;;;;;;32.13;15.20;;;;;;;6.90;93.44;101032.81;4936033;29;20406;-67
2023/03/04 01:24:50;;;;;;;25.90;14.55;;;;;;;6.96;93.28;101027.22;4935474;29;20050;-67
2023/03/04 01:27:18;;;;;;;24.40;14.30;;;;;;;7.05;94.04;101032.25;4952847;29;20491;-67
2023/03/04 01:29:47;;;;;;;28.73;15.23;;;;;;;7.05;93.59;101027.66;4953168;29;20055;-66
2023/03/04 01:32:16;;;;;;;24.65;13.60;;;;;;;7.04;93.20;101023.25;4946024;29;20044;-67
2023/03/04 01:34:44;;;;;;;25.80;13.68;;;;;;;7.09;92.51;101020.63;4941980;29;20056;-67
2023/03/04 01:37:15;;;;;;;23.67;12.90;;;;;;;7.13;92.19;101023.69;4953169;29;20051;-67
2023/03/04 01:39:43;;;;;;;27.65;13.27;;;;;;;7.19;91.32;101028.13;4951230;29;20051;-67
2023/03/04 01:42:20;;;;;;;27.33;14.63;;;;;;;7.33;90.35;101025.94;4952736;29;20106;-67
2023/03/04 01:44:50;;;;;;;23.10;13.07;;;;;;;7.32;91.11;101023.44;4934474;29;20056;-67
2023/03/04 01:47:18;;;;;;;21.90;13.57;;;;;;;7.26;90.81;101033.44;4934038;28;20035;-67
2023/03/04 01:49:54;;;;;;;25.30;12.98;;;;;;;7.30;91.22;101025.59;4955559;28;20075;-67
2023/03/04 01:52:24;;;;;;;25.25;13.80;;;;;;;7.31;90.87;101027.25;4969315;28;20058;-67
2023/03/04 01:54:53;;;;;;;22.80;12.60;;;;;;;7.32;91.51;101015.28;4945775;29;20064;-67
2023/03/04 01:57:24;;;;;;;25.23;13.52;;;;;;;7.35;91.25;101018.34;4954745;28;20055;-67
2023/03/04 02:00:29;;;;;;;23.35;12.13;;;;;;;7.32;91.35;101010.66;4956852;29;20055;-67
2023/03/04 02:03:06;;;;;;;26.70;13.02;;;;;;;7.39;90.58;101021.41;4957058;29;20503;-66
2023/03/04 02:05:37;;;;;;;21.58;12.63;;;;;;;7.41;91.35;101013.81;4956617;29;20059;-67
2023/03/04 02:08:06;;;;;;;21.42;12.43;;;;;;;7.36;90.11;101003.66;4957757;29;20054;-67
2023/03/04 02:10:36;;;;;;;22.80;12.85;;;;;;;7.39;90.07;101005.06;4956757;29;20062;-67
2023/03/04 02:13:05;;;;;;;26.20;12.38;;;;;;;7.48;91.14;101003.56;4956606;29;20062;-67
2023/03/04 02:15:33;;;;;;;23.95;12.27;;;;;;;7.45;90.30;101004.06;4956611;29;20051;-67
2023/03/04 02:18:01;;;;;;;24.83;12.75;;;;;;;7.44;89.92;101002.44;4956276;29;20061;-68
2023/03/04 02:20:56;;;;;;;25.23;12.90;;;;;;;7.40;90.14;100996.63;4955924;29;20059;-67
2023/03/04 02:23:39;;;;;;;23.90;13.07;;;;;;;7.33;90.13;101003.34;4935338;29;20083;-67
2023/03/04 02:26:22;;;;;;;23.10;13.23;;;;;;;7.26;90.81;100992.59;4937359;29;20063;-67
2023/03/04 02:28:55;;;;;;;20.67;12.55;;;;;;;7.20;91.10;101001.75;4921244;29;20070;-67
2023/03/04 02:31:39;;;;;;;24.77;13.48;;;;;;;7.29;91.09;100997.56;4921784;29;20055;-65
2023/03/04 02:34:14;;;;;;;23.92;12.65;;;;;;;7.32;90.52;100998.94;4938609;29;20051;-67
2023/03/04 02:36:44;;;;;;;24.17;13.23;;;;;;;7.25;91.60;100994.47;4938748;29;20062;-67
2023/03/04 02:39:24;;;;;;;26.42;13.07;;;;;;;7.11;91.82;101004.06;4945490;29;20064;-67
2023/03/04 02:41:54;;;;;;;25.63;13.73;;;;;;;7.07;92.86;100998.28;4943323;29;20075;-67
2023/03/04 02:44:27;;;;;;;25.80;12.40;;;;;;;7.03;92.73;101001.75;4932921;29;20055;-66
2023/03/04 02:46:57;;;;;;;23.85;13.45;;;;;;;6.95;93.69;100992.09;4920613;29;20510;-67
2023/03/04 02:49:28;;;;;;;25.38;13.30;;;;;;;6.92;93.26;100987.97;4922414;29;20067;-67
2023/03/04 02:52:02;;;;;;;27.30;12.90;;;;;;;6.88;93.12;100984.06;4953096;29;20058;-67
2023/03/04 02:54:32;;;;;;;27.30;12.40;;;;;;;6.84;93.64;100982.91;4920694;29;20051;-66
2023/03/04 02:57:04;;;;;;;25.42;13.05;;;;;;;6.85;93.29;100979.13;4920345;29;20055;-66
2023/03/04 02:59:36;;;;;;;26.35;12.77;;;;;;;6.88;93.44;100981.34;4955017;29;20054;-67
2023/03/04 03:02:05;;;;;;;24.95;12.40;;;;;;;6.89;93.25;100977.56;4939590;29;20047;-67
2023/03/04 03:04:36;;;;;;;24.23;12.88;;;;;;;6.89;93.45;100965.88;4954165;29;20055;-65
2023/03/04 03:07:08;;;;;;;27.75;13.70;;;;;;;6.88;93.80;100978.63;4922806;29;20398;-67
2023/03/04 03:09:36;;;;;;;20.35;11.68;;;;;;;6.86;93.84;100964.47;4937917;29;20043;-66
2023/03/04 03:12:04;;;;;;;20.70;11.55;;;;;;;6.83;94.43;100970.38;4922585;29;20503;-67
2023/03/04 03:14:32;;;;;;;27.98;12.63;;;;;;;6.82;94.40;100971.44;4938768;29;20051;-67
2023/03/04 03:17:02;;;;;;;22.95;12.60;;;;;;;6.80;94.37;100973.59;4932978;29;20047;-67
2023/03/04 03:19:31;;;;;;;28.90;13.18;;;;;;;6.88;94.07;100967.75;4920193;29;20399;-65
2023/03/04 03:22:02;;;;;;;24.98;12.13;;;;;;;6.83;94.47;100970.38;4920045;29;20418;-67
2023/03/04 03:24:29;;;;;;;22.83;12.18;;;;;;;6.72;94.67;100964.78;4951691;29;20051;-67
2023/03/04 03:26:57;;;;;;;24.20;12.48;;;;;;;6.65;95.06;100968.72;4955085;29;20410;-66
2023/03/04 03:29:25;;;;;;;28.48;13.43;;;;;;;6.56;95.34;100968.28;4923971;29;20518;-67
2023/03/04 03:31:53;;;;;;;23.20;12.35;;;;;;;6.53;95.84;100961.44;4936427;29;20056;-66
2023/03/04 03:34:22;;;;;;;27.05;13.90;;;;;;;6.56;95.56;100965.56;4919082;29;20052;-66
2023/03/04 03:36:50;;;;;;;23.20;13.95;;;;;;;6.54;96.34;100962.22;4936699;29;20052;-67
2023/03/04 03:39:17;;;;;;;26.90;13.13;;;;;;;6.47;96.75;100961.56;4954683;29;20066;-67
2023/03/04 03:41:45;;;;;;;24.13;13.15;;;;;;;6.43;96.53;100967.50;4954457;29;20162;-67
2023/03/04 03:44:13;;;;;;;29.77;13.57;;;;;;;6.39;96.60;100960.03;4952826;29;20055;-66
2023/03/04 03:46:41;;;;;;;25.65;13.77;;;;;;;6.34;96.68;100966.22;4943101;28;20050;-67
2023/03/04 03:49:09;;;;;;;27.42;13.20;;;;;;;6.27;97.64;100962.81;4974595;28;20051;-67
2023/03/04 03:51:37;;;;;;;25.35;13.70;;;;;;;6.21;97.42;100958.34;4966651;28;20426;-67
2023/03/04 03:54:05;;;;;;;26.38;13.70;;;;;;;6.11;97.51;100962.50;4940776;29;20052;-67
2023/03/04 03:56:33;;;;;;;23.27;12.82;;;;;;;6.05;97.71;100960.75;4935892;29;20063;-67
2023/03/04 03:59:01;;;;;;;26.98;12.65;;;;;;;5.96;97.57;100951.31;4935630;29;20699;-67
2023/03/04 04:01:28;;;;;;;23.42;13.52;;;;;;;5.98;97.63;100954.59;4935887;29;20058;-67
2023/03/04 04:03:56;;;;;;;26.98;13.05;;;;;;;5.95;98.01;100955.09;4933896;29;20062;-67
2023/03/04 04:06:24;;;;;;;22.63;12.50;;;;;;;5.93;98.73;100958.03;4936384;29;20051;-67
2023/03/04 04:08:52;;;;;;;27.60;13.85;;;;;;;5.88;98.56;100956.03;4936007;29;20415;-67
2023/03/04 04:11:20;;;;;;;26.25;13.13;;;;;;;5.82;98.72;100958.88;4935645;29;20047;-66
2023/03/04 04:13:48;;;;;;;23.42;13.20;;;;;;;5.76;99.64;100958.78;4935718;29;20051;-67
2023/03/04 04:16:16;;;;;;;25.45;12.70;;;;;;;5.72;98.98;100956.78;4936132;29;20055;-67
2023/03/04 04:18:44;;;;;;;24.63;13.82;;;;;;;5.73;99.29;100953.78;4939357;29;20414;-67
2023/03/04 04:21:13;;;;;;;24.00;13.48;;;;;;;5.74;99.25;100960.91;4952976;28;20517;-67
2023/03/04 04:23:41;;;;;;;24.67;12.77;;;;;;;5.73;99.82;100958.41;4943239;29;20063;-67
2023/03/04 04:26:08;;;;;;;24.60;13.65;;;;;;;5.74;99.46;100968.22;4935971;29;20483;-67
2023/03/04 04:28:36;;;;;;;26.27;12.98;;;;;;;5.76;99.82;100960.66;4937033;29;20040;-66
2023/03/04 04:31:08;;;;;;;29.50;13.80;;;;;;;5.74;99.83;100968.22;4935950;29;20044;-67
2023/03/04 04:33:36;;;;;;;25.10;13.25;;;;;;;5.67;99.50;100964.81;4938660;29;20051;-67
2023/03/04 04:36:05;;;;;;;24.42;12.48;;;;;;;5.60;99.26;100963.03;4935887;29;20110;-67
2023/03/04 04:38:33;;;;;;;24.05;13.68;;;;;;;5.58;99.77;100965.16;4935739;29;20502;-66
2023/03/04 04:41:00;;;;;;;26.48;13.25;;;;;;;5.56;99.52;100964.56;4935437;29;20047;-67
2023/03/04 04:43:28;;;;;;;26.27;13.80;;;;;;;5.48;99.62;100971.16;4935426;29;20058;-67
2023/03/04 04:45:58;;;;;;;25.00;13.07;;;;;;;5.54;99.94;100969.41;4944843;29;20058;-67
2023/03/04 04:48:26;;;;;;;23.17;12.95;;;;;;;5.62;99.58;100981.81;4954525;29;20047;-67
2023/03/04 04:50:55;;;;;;;24.10;13.63;;;;;;;5.62;99.75;100974.47;4937797;29;20062;-67
2023/03/04 04:53:23;;;;;;;26.88;14.20;;;;;;;5.59;99.14;100974.13;4947365;29;20066;-67
2023/03/04 04:55:51;;;;;;;31.15;15.15;;;;;;;5.67;99.93;100976.47;4934987;29;20051;-67
2023/03/04 04:58:19;;;;;;;29.52;14.77;;;;;;;5.65;100.00;100982.16;4934822;29;20056;-67
2023/03/04 05:00:47;;;;;;;27.00;13.68;;;;;;;5.72;100.00;100978.50;4940544;29;20057;-66
2023/03/04 05:03:15;;;;;;;25.33;13.27;;;;;;;5.71;99.18;100977.66;4934936;29;20056;-67
2023/03/04 05:05:45;;;;;;;22.52;13.45;;;;;;;5.65;98.97;100982.16;4934928;29;20052;-65
2023/03/04 05:08:13;;;;;;;25.80;14.05;;;;;;;5.75;99.48;100989.72;4942587;29;20502;-67
2023/03/04 05:10:41;;;;;;;26.05;13.75;;;;;;;5.77;99.48;100986.75;4919517;29;20051;-67
2023/03/04 05:13:08;;;;;;;27.08;13.63;;;;;;;5.71;99.84;100987.72;4935014;29;20399;-67
2023/03/04 05:15:37;;;;;;;30.48;14.88;;;;;;;5.70;99.28;100986.03;4934163;29;20055;-66
2023/03/04 05:18:05;;;;;;;23.45;13.52;;;;;;;5.71;99.61;100976.84;4942181;29;20051;-67
2023/03/04 05:20:33;;;;;;;28.92;14.57;;;;;;;5.80;99.50;100980.84;4953033;29;20061;-67
2023/03/04 05:23:01;;;;;;;27.60;13.20;;;;;;;5.74;99.79;100979.06;4952674;29;20056;-67
2023/03/04 05:25:29;;;;;;;27.17;14.00;;;;;;;5.73;99.94;100977.44;4946945;29;20043;-67
2023/03/04 05:27:57;;;;;;;26.15;13.77;;;;;;;5.76;100.00;100976.94;4935100;29;20051;-67
2023/03/04 05:30:25;;;;;;;31.25;14.57;;;;;;;5.87;99.95;100978.00;4935040;29;20055;-67
2023/03/04 05:32:53;;;;;;;23.92;13.93;;;;;;;5.94;99.84;100975.97;4948446;29;20051;-67
2023/03/04 05:35:21;;;;;;;30.75;14.73;;;;;;;6.01;99.28;100975.88;4953481;29;20483;-67
2023/03/04 05:37:48;;;;;;;24.00;13.70;;;;;;;5.94;99.39;100981.41;4935067;29;20051;-67
2023/03/04 05:40:16;;;;;;;26.52;14.02;;;;;;;5.87;99.73;100981.53;4945277;29;20403;-67
2023/03/04 05:42:44;;;;;;;29.52;13.30;;;;;;;5.85;99.77;100978.25;4935166;29;20062;-67
2023/03/04 05:45:12;;;;;;;26.50;13.30;;;;;;;5.95;99.11;100982.25;4936005;29;20040;-66
2023/03/04 05:47:40;;;;;;;28.52;14.27;;;;;;;5.92;99.09;100981.66;4961837;28;20074;-67
2023/03/04 05:50:09;;;;;;;25.27;13.90;;;;;;;5.95;98.42;100987.69;4959971;28;20395;-68
2023/03/04 05:52:37;;;;;;;29.88;13.98;;;;;;;5.92;98.49;100989.81;4918056;29;20051;-67
2023/03/04 05:55:05;;;;;;;26.17;13.52;;;;;;;5.82;98.33;100978.69;4934837;29;20055;-68
2023/03/04 05:57:33;;;;;;;23.40;13.95;;;;;;;5.75;98.27;100975.28;4934799;29;20051;-67
2023/03/04 06:00:04;;;;;;;27.63;13.57;;;;;;;5.69;98.79;100987.09;4934209;29;20047;-66
2023/03/04 06:02:40;;;;;;;24.77;13.32;;;;;;;5.76;99.63;100985.09;4953162;29;20054;-67
2023/03/04 06:05:09;;;;;;;31.42;15.50;;;;;;;5.78;99.79;100991.13;4952591;29;20063;-67
2023/03/04 06:07:37;;;;;;;23.02;12.57;;;;;;;5.79;99.76;100990.88;4947222;29;20482;-67
2023/03/04 06:10:06;;;;;;;24.40;13.38;;;;;;;5.78;99.06;100994.66;4948725;29;20510;-67
2023/03/04 06:12:34;;;;;;;21.65;12.63;;;;;;;5.73;99.21;100997.25;4952468;29;20050;-67
2023/03/04 06:15:02;;;;;;;24.75;13.85;;;;;;;5.81;99.35;100997.97;4952236;29;20051;-66
2023/03/04 06:17:30;;;;;;;28.15;13.65;;;;;;;5.88;99.36;101004.91;4952322;29;20051;-67
2023/03/04 06:19:59;;;;;;;29.60;14.98;;;;;;;6.05;98.30;100998.78;4951962;29;20445;-66
2023/03/04 06:22:27;;;;;;;29.38;15.57;;;;;;;5.97;98.57;101004.56;4951682;29;20079;-66
2023/03/04 06:24:54;;;;;;;24.90;13.18;;;;;;;6.08;98.12;101006.47;4951613;29;20063;-67
2023/03/04 06:27:22;;;;;;;26.05;13.77;;;;;;;6.07;97.85;101004.81;4946135;29;20044;-67
2023/03/04 06:29:50;;;;;;;29.25;15.13;;;;;;;6.21;96.86;101015.44;4940380;28;20055;-67
2023/03/04 06:32:18;;;;;;;23.33;13.55;;;;;;;6.26;96.27;100999.22;4922180;28;20054;-68
2023/03/04 06:34:46;;;;;;;27.75;14.13;;;;;;;6.38;95.75;101010.06;4942850;28;20043;-67
2023/03/04 06:37:14;;;;;;;28.35;14.88;;;;;;;6.50;95.64;101012.75;4952683;28;20406;-67
2023/03/04 06:39:43;;;;;;;26.55;13.38;;;;;;;6.55;95.69;101018.28;4937166;29;20044;-67
2023/03/04 06:42:11;;;;;;;26.05;14.05;;;;;;;6.74;94.31;101016.19;4932917;29;20059;-68
2023/03/04 06:44:39;;;;;;;23.83;12.98;;;;;;;6.78;93.72;101019.25;4935234;29;20050;-67
2023/03/04 06:47:07;;;;;;;23.20;12.20;;;;;;;6.85;94.30;101017.22;4936644;29;20052;-67
2023/03/04 06:49:35;;;;;;;24.20;12.77;;;;;;;7.21;92.82;101015.13;4943533;28;20048;-67
2023/03/04 06:52:03;;;;;;;28.50;13.55;;;;;;;7.44;91.63;101018.78;4947705;28;20581;-66
2023/03/04 06:54:31;;;;;;;23.60;12.52;;;;;;;7.61;91.29;101023.34;4947052;28;20055;-66
2023/03/04 06:56:59;;;;;;;24.63;12.93;;;;;;;7.76;89.79;101028.22;4951776;28;20502;-66
2023/03/04 06:59:27;;;;;;;28.83;13.15;;;;;;;8.09;88.68;101031.13;4954951;28;20376;-67
2023/03/04 07:01:55;;;;;;;25.60;12.57;;;;;;;8.54;86.47;101030.09;4955192;29;20059;-68
2023/03/04 07:04:23;;;;;;;25.67;13.02;;;;;;;8.92;84.55;101040.31;4952201;29;20050;-68
2023/03/04 07:06:51;;;;;;;18.80;11.32;;;;;;;9.14;83.08;101026.59;4953152;29;20051;-68
2023/03/04 07:09:19;;;;;;;27.30;12.40;;;;;;;9.21;84.17;101038.16;4952938;28;20051;-65
2023/03/04 07:11:47;;;;;;;25.33;12.85;;;;;;;9.29;83.56;101039.56;4948268;28;20063;-66
2023/03/04 07:14:15;;;;;;;25.95;12.50;;;;;;;9.14;82.32;101038.34;4954102;29;20065;-66
2023/03/04 07:16:44;;;;;;;30.65;13.75;;;;;;;9.19;83.41;101037.56;4954074;29;20059;-67
2023/03/04 07:19:12;;;;;;;24.63;12.70;;;;;;;9.24;82.52;101039.53;4954315;28;20054;-67
2023/03/04 07:21:40;;;;;;;22.13;12.82;;;;;;;9.26;82.73;101043.66;4954165;29;20070;-67
2023/03/04 07:24:08;;;;;;;24.17;12.48;;;;;;;9.31;82.54;101042.03;4946775;29;20051;-67
2023/03/04 07:26:37;;;;;;;22.90;11.45;;;;;;;9.43;81.46;101039.94;4935787;29;20059;-66
2023/03/04 07:29:05;;;;;;;24.40;11.85;;;;;;;9.66;81.03;101030.56;4945649;28;20052;-66
2023/03/04 07:31:34;;;;;;;21.80;11.25;;;;;;;9.90;79.51;101038.38;4924539;29;20403;-67
2023/03/04 07:34:05;;;;;;;24.17;11.60;;;;;;;10.23;77.69;101027.34;4940577;28;20055;-66
2023/03/04 07:36:35;;;;;;;22.92;11.63;;;;;;;10.09;78.16;101029.72;4951550;28;20063;-66
2023/03/04 07:39:04;;;;;;;27.42;12.25;;;;;;;10.02;78.93;101034.63;4952574;29;20058;-66
2023/03/04 07:41:35;;;;;;;21.08;11.82;;;;;;;10.06;78.77;101031.09;4954120;29;20039;-66
2023/03/04 07:44:04;;;;;;;22.38;11.88;;;;;;;10.51;76.46;101033.47;4952281;29;20039;-67
2023/03/04 07:46:33;;;;;;;22.95;11.55;;;;;;;10.84;75.14;101033.31;4920931;29;20058;-67
2023/03/04 07:49:01;;;;;;;21.88;12.48;;;;;;;10.85;74.50;101027.56;4935605;29;20487;-67
2023/03/04 07:51:29;;;;;;;23.00;12.00;;;;;;;11.23;73.26;101032.81;4945998;28;20040;-67
2023/03/04 07:53:59;;;;;;;24.58;11.65;;;;;;;11.09;74.10;101039.94;4943273;28;20051;-66
2023/03/04 07:56:31;;;;;;;22.15;11.98;;;;;;;11.27;73.05;101028.44;4952324;29;20062;-65
2023/03/04 07:59:00;;;;;;;21.75;11.68;;;;;;;11.62;72.08;101031.44;4951095;29;20047;-66
2023/03/04 08:01:35;;;;;;;19.55;11.35;;;;;;;11.65;72.34;101032.81;4937686;29;20047;-66
2023/03/04 08:04:04;;;;;;;29.52;13.07;;;;;;;11.79;71.62;101033.88;4951705;28;20039;-66
2023/03/04 08:06:33;;;;;;;24.73;11.65;;;;;;;11.71;69.87;101031.69;4954819;29;20056;-66
2023/03/04 08:09:05;;;;;;;21.38;12.02;;;;;;;11.52;71.76;101035.00;4954744;29;20043;-67
2023/03/04 08:11:36;;;;;;;21.42;11.85;;;;;;;11.74;71.59;101028.41;4954710;29;20047;-67
2023/03/04 08:14:05;;;;;;;21.33;11.98;;;;;;;12.36;69.64;101032.91;4953677;29;20055;-66
2023/03/04 08:16:33;;;;;;;28.23;11.27;;;;;;;12.20;68.80;101034.91;4955070;29;20047;-66
2023/03/04 08:19:02;;;;;;;22.55;12.10;;;;;;;12.18;69.23;101026.13;4954137;29;20055;-66
2023/03/04 08:21:30;;;;;;;23.70;11.10;;;;;;;12.23;68.89;101026.94;4954427;29;20055;-67
2023/03/04 08:24:01;;;;;;;19.33;11.23;;;;;;;12.49;67.52;101028.75;4954382;29;20047;-67
2023/03/04 08:26:37;;;;;;;18.70;10.85;;;;;;;12.68;67.47;101023.44;4953789;29;20051;-67
2023/03/04 08:29:10;;;;;;;21.85;12.15;;;;;;;12.50;66.47;101022.16;4954301;29;20055;-67
2023/03/04 08:31:38;;;;;;;19.90;10.57;;;;;;;12.81;65.56;101027.47;4954039;29;20078;-67
2023/03/04 08:34:09;;;;;;;18.58;10.70;;;;;;;12.86;64.45;101029.38;4954044;29;20055;-66
2023/03/04 08:36:37;;;;;;;21.52;10.85;;;;;;;13.07;63.48;101026.47;4954013;29;20062;-67
2023/03/04 08:39:05;;;;;;;18.80;10.32;;;;;;;12.86;64.36;101018.41;4953608;29;20510;-67
2023/03/04 08:41:33;;;;;;;20.33;11.35;;;;;;;12.98;63.33;101016.09;4953739;29;20074;-67
2023/03/04 08:44:01;;;;;;;23.20;11.45;;;;;;;13.23;63.69;101016.19;4953933;29;20182;-66
2023/03/04 08:46:29;;;;;;;22.52;11.30;;;;;;;13.26;63.42;101021.94;4953772;29;20055;-67
2023/03/04 08:48:57;;;;;;;19.52;11.02;;;;;;;13.65;61.86;101022.97;4953613;29;20058;-66
2023/03/04 08:51:25;;;;;;;21.10;10.95;;;;;;;13.12;63.72;101009.97;4953585;29;20055;-67
2023/03/04 08:53:53;;;;;;;17.58;11.65;;;;;;;13.58;62.02;101011.50;4953559;29;20047;-66
2023/03/04 08:56:21;;;;;;;26.17;11.95;;;;;;;13.62;59.64;101026.34;4954298;29;20043;-67
2023/03/04 08:58:49;;;;;;;20.83;11.60;;;;;;;13.98;59.01;101014.94;4953255;29;20047;-67
2023/03/04 09:01:17;;;;;;;23.92;11.23;;;;;;;14.42;58.06;101014.16;4953689;29;20410;-67
2023/03/04 09:03:45;;;;;;;19.77;11.05;;;;;;;14.39;56.02;101012.81;4953402;29;20059;-67
2023/03/04 09:06:15;;;;;;;23.15;11.18;;;;;;;14.16;55.81;101014.47;4952401;28;20070;-67
2023/03/04 09:08:44;;;;;;;21.77;11.38;;;;;;;14.04;57.20;101003.91;4953805;29;20048;-67
2023/03/04 09:11:12;;;;;;;21.75;11.18;;;;;;;14.44;56.79;101003.66;4953271;29;20062;-67
2023/03/04 09:13:40;;;;;;;18.35;10.48;;;;;;;14.41;55.63;101007.03;4953478;29;20070;-67
2023/03/04 09:16:11;;;;;;;16.10;9.50;;;;;;;14.28;53.31;101005.81;4952573;29;20418;-66
2023/03/04 09:18:40;;;;;;;15.77;9.30;;;;;;;13.94;55.20;101008.38;4952273;29;20043;-67
2023/03/04 09:21:09;;;;;;;18.52;9.75;;;;;;;14.62;53.42;100993.81;4952135;29;20079;-67
2023/03/04 09:23:38;;;;;;;20.52;10.57;;;;;;;14.59;53.55;100999.88;4951182;29;20058;-66
2023/03/04 09:26:18;;;;;;;21.25;10.45;;;;;;;14.84;51.39;101000.66;4950949;29;20614;-66
2023/03/04 09:28:51;;;;;;;22.95;11.40;;;;;;;15.17;50.95;100992.44;4951536;29;20051;-66
2023/03/04 09:31:20;;;;;;;21.02;10.80;;;;;;;15.29;52.15;100994.72;4950838;29;20403;-65
2023/03/04 09:33:49;;;;;;;22.30;11.55;;;;;;;15.11;51.06;100996.41;4951756;29;20050;-66
2023/03/04 09:36:17;;;;;;;21.48;11.95;;;;;;;15.29;51.83;100987.25;4951549;28;20059;-64
2023/03/04 09:38:45;;;;;;;22.40;10.57;;;;;;;15.03;50.95;100993.22;4952366;29;20490;-65
2023/03/04 09:41:20;;;;;;;18.45;9.90;;;;;;;15.28;51.13;100988.41;4952039;29;20058;-66
2023/03/04 09:43:51;;;;;;;17.23;9.98;;;;;;;15.48;49.97;100985.59;4953326;29;20041;-66
2023/03/04 09:46:32;;;;;;;26.40;11.55;;;;;;;15.40;52.08;100985.13;4952537;29;20039;-66
2023/03/04 09:49:01;;;;;;;22.05;9.82;;;;;;;14.93;50.76;100993.38;4952337;29;20059;-66
2023/03/04 09:51:47;;;;;;;17.48;9.57;;;;;;;14.45;53.30;100988.78;4940129;29;20056;-67
2023/03/04 09:54:24;;;;;;;18.02;9.57;;;;;;;15.44;50.56;100986.19;4941165;29;20039;-67
2023/03/04 09:56:59;;;;;;;24.00;10.63;;;;;;;15.82;50.26;100990.72;4942818;28;20491;-67
2023/03/04 09:59:48;;;;;;;20.27;10.73;;;;;;;16.07;48.98;100985.03;4954568;28;20062;-66
2023/03/04 10:02:23;;;;;;;21.60;10.38;;;;;;;15.94;49.49;100986.69;4942579;28;20043;-66
2023/03/04 10:04:58;;;;;;;19.10;10.15;;;;;;;15.92;48.29;100975.94;4950104;29;20059;-66
2023/03/04 10:07:33;;;;;;;18.15;9.30;;;;;;;15.95;47.57;100977.28;4949539;29;20080;-69
2023/03/04 10:10:04;;;;;;;16.23;9.82;;;;;;;15.93;46.12;100979.53;4949581;29;20864;-68
2023/03/04 10:12:39;;;;;;;20.90;9.60;;;;;;;15.88;47.63;100974.06;4916899;28;20055;-66
2023/03/04 10:15:23;;;;;;;16.45;10.18;;;;;;;15.69;44.54;100975.00;4949794;29;20054;-66
2023/03/04 10:18:01;;;;;;;19.52;10.25;;;;;;;15.71;45.60;100972.75;4952562;28;20083;-66
2023/03/04 10:20:49;;;;;;;18.58;10.45;;;;;;;15.94;46.30;100964.59;4954963;29;20074;-66
2023/03/04 10:23:40;;;;;;;18.25;10.15;;;;;;;15.91;47.54;100962.41;4953008;29;20059;-66
2023/03/04 10:26:15;;;;;;;20.25;10.68;;;;;;;16.28;49.00;100965.28;4954485;29;20054;-66
2023/03/04 10:28:43;;;;;;;16.48;10.13;;;;;;;16.13;48.01;100961.72;4955141;28;20068;-66
2023/03/04 10:31:29;;;;;;;20.95;10.18;;;;;;;15.68;47.80;100963.13;4956495;28;20474;-66
2023/03/04 10:33:57;;;;;;;18.45;10.23;;;;;;;16.06;48.65;100956.63;4954451;29;20051;-67
2023/03/04 10:36:30;;;;;;;19.98;11.60;;;;;;;16.10;46.84;100951.28;4953954;29;20051;-66
2023/03/04 10:39:07;;;;;;;19.67;11.20;;;;;;;15.93;49.12;100940.88;4954158;29;20074;-66
2023/03/04 10:41:35;;;;;;;17.92;10.15;;;;;;;16.15;47.38;100940.16;4955208;29;21310;-67
2023/03/04 10:44:10;;;;;;;22.58;11.25;;;;;;;16.14;48.63;100938.50;4952287;29;20048;-66
2023/03/04 10:46:44;;;;;;;21.63;11.15;;;;;;;16.12;47.54;100938.00;4953655;29;20415;-65
2023/03/04 10:49:19;;;;;;;23.58;11.68;;;;;;;16.45;47.47;100931.47;4954455;29;20039;-66
2023/03/04 10:52:20;;;;;;;20.83;11.07;;;;;;;17.16;46.41;100930.88;4953984;29;20077;-66
2023/03/04 10:54:54;;;;;;;22.90;11.52;;;;;;;16.82;46.45;100929.53;4951988;29;20047;-67
2023/03/04 10:57:35;;;;;;;21.63;11.13;;;;;;;16.86;46.81;100922.22;4953789;29;20062;-66
2023/03/04 11:00:16;;;;;;;21.65;11.63;;;;;;;17.16;47.19;100919.81;4954793;29;20293;-66
2023/03/04 11:02:46;;;;;;;25.05;12.52;;;;;;;17.52;46.36;100917.22;4953199;29;20054;-66
2023/03/04 11:05:19;;;;;;;21.60;12.23;;;;;;;16.83;48.51;100917.34;4955390;28;20047;-66
2023/03/04 11:07:57;;;;;;;24.55;12.50;;;;;;;17.36;48.27;100919.63;4952884;29;20054;-66
2023/03/04 11:10:39;;;;;;;23.05;12.32;;;;;;;17.24;48.06;100909.13;4953373;29;20058;-66
2023/03/04 11:13:10;;;;;;;25.05;12.38;;;;;;;16.98;47.19;100905.06;4952668;29;20082;-66
2023/03/04 11:15:55;;;;;;;23.75;11.95;;;;;;;17.39;45.66;100905.13;4935546;29;20058;-66
2023/03/04 11:18:51;;;;;;;23.05;11.40;;;;;;;16.48;47.38;100901.28;4956958;28;20058;-67
2023/03/04 11:21:22;;;;;;;22.83;11.00;;;;;;;17.10;46.45;100898.19;4951856;29;20055;-67
2023/03/04 11:24:01;;;;;;;26.25;12.07;;;;;;;17.59;44.46;100887.16;4922266;29;20295;-66
2023/03/04 11:26:41;;;;;;;23.58;12.57;;;;;;;17.76;43.28;100886.41;4945601;28;20391;-67
2023/03/04 11:29:19;;;;;;;20.63;11.07;;;;;;;18.43;41.82;100886.31;4950141;28;20055;-67